Time,TemperatureF,DewpointF,PressureIn,WindDirection,WindDirectionDegrees,WindSpeedMPH,WindSpeedGustMPH,Humidity,HourlyPrecipIn,Conditions,Clouds,dailyrainin,SoftwareType,DateUTC
2013-05-04 00:00:00,25.0,-3.0,-100.00,WNW,299,4.0,8.0,28,-99.99,,,-99.99,,2013-05-04 06:00:00,
2013-05-04 00:42:00,25.0,-3.0,-100.00,WNW,299,4.0,8.0,28,-99.99,,,-99.99,,2013-05-04 06:42:00,
2013-05-04 00:52:00,25.0,-3.0,-100.00,WNW,299,4.0,8.0,28,-99.99,,,-99.99,,2013-05-04 06:52:00,
2013-05-04 01:00:00,26.0,-3.0,-100.00,SW,224,5.0,10.0,28,-99.99,,,-99.99,,2013-05-04 07:00:00,
2013-05-04 01:42:00,26.0,-3.0,-100.00,SW,224,5.0,10.0,28,-99.99,,,-99.99,,2013-05-04 07:42:00,
2013-05-04 01:52:00,26.0,-3.0,-100.00,SW,224,5.0,10.0,28,-99.99,,,-99.99,,2013-05-04 07:52:00,
2013-05-04 02:00:00,26.0,-2.0,-100.00,SSW,204,9.0,13.0,29,-99.99,,,-99.99,,2013-05-04 08:00:00,
2013-05-04 02:42:00,26.0,-2.0,-100.00,SSW,204,9.0,13.0,29,-99.99,,,-99.99,,2013-05-04 08:42:00,
2013-05-04 02:52:00,26.0,-2.0,-100.00,SSW,204,9.0,13.0,29,-99.99,,,-99.99,,2013-05-04 08:52:00,
2013-05-04 03:00:00,25.0,-1.0,-100.00,SSW,202,11.0,15.0,30,-99.99,,,-99.99,,2013-05-04 09:00:00,
2013-05-04 03:42:00,25.0,-1.0,-100.00,SSW,202,11.0,15.0,30,-99.99,,,-99.99,,2013-05-04 09:42:00,
2013-05-04 03:53:00,25.0,-1.0,-100.00,SSW,202,11.0,15.0,30,-99.99,,,-99.99,,2013-05-04 09:53:00,
2013-05-04 04:00:00,24.0,-2.0,-100.00,SSW,201,11.0,15.0,31,-99.99,,,-99.99,,2013-05-04 10:00:00,
2013-05-04 04:42:00,24.0,-2.0,-100.00,SSW,201,11.0,15.0,31,-99.99,,,-99.99,,2013-05-04 10:42:00,
2013-05-04 04:53:00,24.0,-2.0,-100.00,SSW,201,11.0,15.0,31,-99.99,,,-99.99,,2013-05-04 10:53:00,
2013-05-04 05:00:00,24.0,-2.0,-100.00,SSW,200,9.0,16.0,31,-99.99,,,-99.99,,2013-05-04 11:00:00,
2013-05-04 05:46:00,24.0,-2.0,-100.00,SSW,200,9.0,16.0,31,-99.99,,,-99.99,,2013-05-04 11:46:00,
2013-05-04 06:00:00,23.0,-2.0,-100.00,WNW,299,7.0,11.0,33,-99.99,,,-99.99,,2013-05-04 12:00:00,
2013-05-04 06:42:00,23.0,-2.0,-100.00,WNW,299,7.0,11.0,33,-99.99,,,-99.99,,2013-05-04 12:42:00,
2013-05-04 06:52:00,23.0,-2.0,-100.00,WNW,299,7.0,11.0,33,-99.99,,,-99.99,,2013-05-04 12:52:00,
2013-05-04 07:00:00,23.0,-3.0,-100.00,NNW,329,7.0,12.0,32,-99.99,,,-99.99,,2013-05-04 13:00:00,
2013-05-04 07:42:00,23.0,-3.0,-100.00,NNW,329,7.0,12.0,32,-99.99,,,-99.99,,2013-05-04 13:42:00,
2013-05-04 07:52:00,23.0,-3.0,-100.00,NNW,329,7.0,12.0,32,-99.99,,,-99.99,,2013-05-04 13:52:00,
2013-05-04 08:00:00,25.0,-5.0,-100.00,NW,315,10.0,12.0,26,-99.99,,,-99.99,,2013-05-04 14:00:00,
2013-05-04 08:42:00,25.0,-5.0,-100.00,NW,315,10.0,12.0,26,-99.99,,,-99.99,,2013-05-04 14:42:00,
2013-05-04 08:52:00,25.0,-5.0,-100.00,NW,315,10.0,12.0,26,-99.99,,,-99.99,,2013-05-04 14:52:00,
2013-05-04 09:00:00,27.0,-5.0,-100.00,NW,312,8.0,11.0,24,-99.99,,,-99.99,,2013-05-04 15:00:00,
2013-05-04 09:43:00,27.0,-5.0,-100.00,NW,312,8.0,11.0,24,-99.99,,,-99.99,,2013-05-04 15:43:00,
2013-05-04 09:53:00,27.0,-5.0,-100.00,NW,312,8.0,11.0,24,-99.99,,,-99.99,,2013-05-04 15:53:00,
2013-05-04 10:00:00,29.0,-2.0,-100.00,NNW,327,4.0,8.0,25,-99.99,,,-99.99,,2013-05-04 16:00:00,
2013-05-04 10:42:00,29.0,-2.0,-100.00,NNW,327,4.0,8.0,25,-99.99,,,-99.99,,2013-05-04 16:42:00,
2013-05-04 10:52:00,29.0,-2.0,-100.00,NNW,327,4.0,8.0,25,-99.99,,,-99.99,,2013-05-04 16:52:00,
2013-05-04 11:00:00,31.0,-1.0,-100.00,WSW,251,3.0,12.0,25,-99.99,,,-99.99,,2013-05-04 17:00:00,
2013-05-04 11:42:00,31.0,-1.0,-100.00,WSW,251,3.0,12.0,25,-99.99,,,-99.99,,2013-05-04 17:42:00,
2013-05-04 11:52:00,31.0,-1.0,-100.00,WSW,251,3.0,12.0,25,-99.99,,,-99.99,,2013-05-04 17:52:00,
2013-05-04 12:00:00,31.0,4.0,-100.00,SW,234,5.0,16.0,30,-99.99,,,-99.99,,2013-05-04 18:00:00,
2013-05-04 12:42:00,31.0,4.0,-100.00,SW,234,5.0,16.0,30,-99.99,,,-99.99,,2013-05-04 18:42:00,
2013-05-04 12:52:00,31.0,4.0,-100.00,SW,234,5.0,16.0,30,-99.99,,,-99.99,,2013-05-04 18:52:00,
2013-05-04 13:00:00,32.0,6.0,-100.00,SSW,203,8.0,22.0,32,-99.99,,,-99.99,,2013-05-04 19:00:00,
2013-05-04 13:42:00,32.0,6.0,-100.00,SSW,203,8.0,22.0,32,-99.99,,,-99.99,,2013-05-04 19:42:00,
2013-05-04 13:52:00,32.0,6.0,-100.00,SSW,203,8.0,22.0,32,-99.99,,,-99.99,,2013-05-04 19:52:00,
2013-05-04 14:00:00,32.0,9.0,-100.00,SSW,200,10.0,24.0,37,-99.99,,,-99.99,,2013-05-04 20:00:00,
2013-05-04 14:42:00,32.0,9.0,-100.00,SSW,200,10.0,24.0,37,-99.99,,,-99.99,,2013-05-04 20:42:00,
2013-05-04 14:52:00,32.0,9.0,-100.00,SSW,200,10.0,24.0,37,-99.99,,,-99.99,,2013-05-04 20:52:00,
2013-05-04 15:00:00,31.0,10.0,-100.00,South,185,14.0,25.0,40,-99.99,,,-99.99,,2013-05-04 21:00:00,
2013-05-04 15:43:00,31.0,10.0,-100.00,South,185,14.0,25.0,40,-99.99,,,-99.99,,2013-05-04 21:43:00,
2013-05-04 15:53:00,31.0,10.0,-100.00,South,185,14.0,25.0,40,-99.99,,,-99.99,,2013-05-04 21:53:00,
2013-05-04 16:00:00,30.0,10.0,-100.00,SE,146,9.0,23.0,42,-99.99,,,-99.99,,2013-05-04 22:00:00,
2013-05-04 16:42:00,30.0,10.0,-100.00,SE,146,9.0,23.0,42,-99.99,,,-99.99,,2013-05-04 22:42:00,
2013-05-04 16:52:00,30.0,10.0,-100.00,SE,146,9.0,23.0,42,-99.99,,,-99.99,,2013-05-04 22:52:00,
2013-05-04 17:00:00,32.0,11.0,-100.00,South,185,10.0,26.0,42,-99.99,,,-99.99,,2013-05-04 23:00:00,
2013-05-04 17:42:00,32.0,11.0,-100.00,South,185,10.0,26.0,42,-99.99,,,-99.99,,2013-05-04 23:42:00,
2013-05-04 17:52:00,32.0,11.0,-100.00,South,185,10.0,26.0,42,-99.99,,,-99.99,,2013-05-04 23:52:00,
2013-05-04 18:00:00,33.0,10.0,-100.00,SSW,204,12.0,28.0,38,-99.99,,,-99.99,,2013-05-05 00:00:00,
2013-05-04 18:42:00,33.0,10.0,-100.00,SSW,204,12.0,28.0,38,-99.99,,,-99.99,,2013-05-05 00:42:00,
2013-05-04 18:52:00,33.0,10.0,-100.00,SSW,204,12.0,28.0,38,-99.99,,,-99.99,,2013-05-05 00:52:00,
2013-05-04 19:00:00,31.0,8.0,-100.00,SSW,200,12.0,33.0,37,-99.99,,,-99.99,,2013-05-05 01:00:00,
2013-05-04 19:42:00,31.0,8.0,-100.00,SSW,200,12.0,33.0,37,-99.99,,,-99.99,,2013-05-05 01:42:00,
2013-05-04 19:52:00,31.0,8.0,-100.00,SSW,200,12.0,33.0,37,-99.99,,,-99.99,,2013-05-05 01:52:00,
2013-05-04 20:00:00,30.0,4.0,-100.00,South,172,7.0,18.0,32,-99.99,,,-99.99,,2013-05-05 02:00:00,
2013-05-04 20:42:00,30.0,4.0,-100.00,South,172,7.0,18.0,32,-99.99,,,-99.99,,2013-05-05 02:42:00,
2013-05-04 20:52:00,30.0,4.0,-100.00,South,172,7.0,18.0,32,-99.99,,,-99.99,,2013-05-05 02:52:00,
2013-05-04 21:00:00,30.0,3.0,-100.00,South,176,11.0,22.0,31,-99.99,,,-99.99,,2013-05-05 03:00:00,
2013-05-04 21:42:00,30.0,3.0,-100.00,South,176,11.0,22.0,31,-99.99,,,-99.99,,2013-05-05 03:42:00,
2013-05-04 21:53:00,30.0,3.0,-100.00,South,176,11.0,22.0,31,-99.99,,,-99.99,,2013-05-05 03:53:00,
2013-05-04 22:00:00,30.0,1.0,-100.00,SSE,149,11.0,19.0,28,-99.99,,,-99.99,,2013-05-05 04:00:00,
2013-05-04 22:43:00,30.0,1.0,-100.00,SSE,149,11.0,19.0,28,-99.99,,,-99.99,,2013-05-05 04:43:00,
2013-05-04 22:52:00,30.0,1.0,-100.00,SSE,149,11.0,19.0,28,-99.99,,,-99.99,,2013-05-05 04:52:00,
2013-05-04 23:00:00,30.0,1.0,-100.00,SE,140,10.0,27.0,28,-99.99,,,-99.99,,2013-05-05 05:00:00,
2013-05-04 23:42:00,30.0,1.0,-100.00,SE,140,10.0,27.0,28,-99.99,,,-99.99,,2013-05-05 05:42:00,
2013-05-04 23:52:00,30.0,1.0,-100.00,SE,140,10.0,27.0,28,-99.99,,,-99.99,,2013-05-05 05:52:00,